Willingham, United Kingdom
Current Conditions -  °F | °C
As of 6:50 AM on Saturday 25 Oct 2014 (Local Time) from EGXP Reporting Station
Clear Clear  
Wind Chill: 39°   Ceiling: Unl
Heat Index: 45°   Visibility: 6mi
Dew Point: 45°   Wind: 12mph
Humidity: 100%   Direction: 220°SW
Pressure: 29.91"   Gusts: NA
Location:  53.35°N, 0.68°W
Report Text: EGXP 250550Z AUTO 22010KT 9999 // NCD 07/07 Q1013
Loading
Personal Weather Stations






























Interactive Weather Map
Tropical Storm Tracking
New forecast layout! Learn more

10-Day Weather Forecast

Advertisements
Track Severe Weather on mobile